Bowser, Canada
Current Conditions -  °F | °C
As of 9:00 AM on Thursday 23 Oct 2014 (Local Time) from CYQQ Reporting Station
Rain Showers Rain Showers  
Wind Chill: 44°   Ceiling: 4400
Heat Index: 48°   Visibility: 4mi
Dew Point: 46°   Wind: 9mph
Humidity: 93%   Direction: 250°WSW
Pressure: 29.66"   Gusts: NA
Location:  49.43°N, 124.68°W
Report Text: CYQQ 231600Z 25008KT 4SM -SHRA BR FEW017 OVC044 09/08 A2966 RMK SC1SC7 SLP045
Loading
Personal Weather Stations






























Interactive Weather Map
Tropical Storm Tracking
New forecast layout! Learn more

10-Day Weather Forecast

Advertisements
Track Severe Weather on mobile